createdAt,value
2022-10-02T00:02:06.830Z,5.85
2022-10-02T00:04:44.264Z,5.50
2022-10-02T00:07:17.024Z,5.80
2022-10-02T00:09:51.548Z,5.75
2022-10-02T00:12:25.004Z,5.68
2022-10-02T00:15:07.470Z,5.28
2022-10-02T00:17:45.775Z,5.50
2022-10-02T00:20:18.881Z,5.75
2022-10-02T00:22:55.304Z,5.60
2022-10-02T00:25:30.586Z,5.50
2022-10-02T00:28:17.270Z,5.68
2022-10-02T00:30:59.754Z,5.60
2022-10-02T00:33:39.543Z,5.30
2022-10-02T00:36:22.526Z,5.35
2022-10-02T00:39:03.443Z,5.20
2022-10-02T00:42:12.004Z,5.60
2022-10-02T00:44:58.394Z,5.05
2022-10-02T00:47:39.279Z,4.65
2022-10-02T00:50:27.845Z,5.28
2022-10-02T00:53:10.657Z,5.70
2022-10-02T00:55:56.723Z,5.10
2022-10-02T01:01:38.919Z,5.28
2022-10-02T01:04:20.301Z,5.35
2022-10-02T01:06:59.039Z,5.10
2022-10-02T01:09:32.639Z,5.55
2022-10-02T01:12:13.420Z,5.25
2022-10-02T01:14:51.413Z,4.95
2022-10-02T01:17:26.194Z,4.82
2022-10-02T01:19:54.953Z,5.40
2022-10-02T01:22:32.794Z,4.90
2022-10-02T01:25:05.609Z,4.93
2022-10-02T01:27:39.546Z,5.07
2022-10-02T01:30:13.003Z,5.00
2022-10-02T01:32:44.357Z,4.60
2022-10-02T01:35:13.084Z,4.78
2022-10-02T01:37:45.224Z,4.68
2022-10-02T01:40:26.318Z,4.70
2022-10-02T01:42:57.593Z,4.70
2022-10-02T01:45:38.731Z,4.47
2022-10-02T01:48:15.664Z,5.00
2022-10-02T01:50:53.924Z,4.60
2022-10-02T01:53:30.854Z,5.55
2022-10-02T01:56:08.723Z,4.70
2022-10-02T01:58:47.094Z,4.43
2022-10-02T02:01:30.090Z,4.65
2022-10-02T02:04:05.334Z,4.25
2022-10-02T02:06:39.744Z,4.72
2022-10-02T02:09:14.163Z,4.85
2022-10-02T02:11:56.629Z,4.88
2022-10-02T02:14:31.945Z,4.35
2022-10-02T02:17:11.344Z,4.88
2022-10-02T02:19:45.714Z,4.85
2022-10-02T02:22:21.056Z,4.25
2022-10-02T02:24:54.796Z,4.53
2022-10-02T02:27:29.358Z,4.57
2022-10-02T02:30:04.628Z,4.50
2022-10-02T02:32:37.484Z,4.28
2022-10-02T02:35:10.954Z,4.20
2022-10-02T02:37:43.454Z,4.40
2022-10-02T02:40:17.493Z,4.38
2022-10-02T02:42:52.555Z,4.80
2022-10-02T02:45:24.403Z,4.40
2022-10-02T02:47:56.443Z,4.38
2022-10-02T02:50:32.965Z,4.22
2022-10-02T02:53:08.614Z,4.30
2022-10-02T02:58:20.184Z,3.97
2022-10-02T03:00:49.124Z,4.15
2022-10-02T03:03:19.517Z,4.35
2022-10-02T03:05:52.155Z,4.28
2022-10-02T03:08:25.295Z,4.20
2022-10-02T03:11:10.737Z,4.40
2022-10-02T03:13:50.815Z,4.20
2022-10-02T03:16:30.834Z,4.05
2022-10-02T03:19:12.105Z,4.10
2022-10-02T03:21:48.577Z,4.00
2022-10-02T03:24:22.824Z,4.15
2022-10-02T03:26:57.094Z,4.10
2022-10-02T03:29:33.044Z,3.83
2022-10-02T03:32:07.054Z,4.20
2022-10-02T03:34:36.466Z,3.80
2022-10-02T03:37:09.494Z,3.92
2022-10-02T03:39:44.166Z,3.83
2022-10-02T03:42:15.017Z,4.07
2022-10-02T03:44:45.493Z,4.00
2022-10-02T03:47:14.074Z,3.78
2022-10-02T03:49:44.524Z,3.90
2022-10-02T03:52:16.508Z,3.70
2022-10-02T03:54:46.308Z,3.90
2022-10-02T03:57:21.550Z,3.50
2022-10-02T03:59:59.229Z,4.00
2022-10-02T04:02:34.704Z,3.75
2022-10-02T04:05:11.505Z,3.88
2022-10-02T04:07:43.636Z,3.95
2022-10-02T04:10:27.513Z,3.90
2022-10-02T04:13:05.226Z,3.78
2022-10-02T04:15:48.777Z,4.05
2022-10-02T04:18:24.458Z,3.80
2022-10-02T04:23:28.394Z,3.75
2022-10-02T04:26:02.204Z,3.60
2022-10-02T04:28:38.045Z,3.75
2022-10-02T04:31:14.179Z,4.03
2022-10-02T04:33:42.784Z,3.70
2022-10-02T04:36:22.426Z,3.63
2022-10-02T04:39:19.404Z,3.40
2022-10-02T04:42:17.014Z,3.60
2022-10-02T04:45:08.454Z,3.83
2022-10-02T04:47:57.465Z,3.47
2022-10-02T04:50:39.864Z,3.75
2022-10-02T04:53:20.994Z,3.55
2022-10-02T04:56:04.943Z,3.50
2022-10-02T04:59:07.890Z,3.42
2022-10-02T05:01:57.117Z,3.80
2022-10-02T05:04:52.874Z,3.70
2022-10-02T05:08:00.605Z,3.47
2022-10-02T05:10:45.925Z,3.55
2022-10-02T05:13:31.355Z,3.40
2022-10-02T05:16:11.999Z,3.50
2022-10-02T05:18:59.454Z,3.30
2022-10-02T05:21:54.715Z,3.22
2022-10-02T05:24:45.218Z,3.28
2022-10-02T05:27:25.214Z,3.67
2022-10-02T05:30:08.925Z,3.42
2022-10-02T05:33:05.094Z,3.35
2022-10-02T05:35:47.494Z,3.30
2022-10-02T05:38:29.764Z,3.45
2022-10-02T05:41:06.003Z,3.33
2022-10-02T05:43:43.764Z,3.22
2022-10-02T05:46:17.889Z,3.03
2022-10-02T05:48:50.475Z,3.20
2022-10-02T05:51:29.396Z,3.25
2022-10-02T05:54:05.033Z,3.28
2022-10-02T05:56:39.886Z,3.30
2022-10-02T05:59:15.723Z,3.17
2022-10-02T06:01:49.592Z,3.45
2022-10-02T06:04:25.525Z,3.30
2022-10-02T06:06:59.084Z,3.40
2022-10-02T06:09:33.204Z,3.08
2022-10-02T06:12:05.000Z,3.30
2022-10-02T06:14:38.606Z,3.20
2022-10-02T06:17:12.993Z,3.05
2022-10-02T06:19:48.085Z,2.97
2022-10-02T06:22:20.286Z,3.20
2022-10-02T06:24:55.385Z,3.13
2022-10-02T06:27:33.244Z,3.08
2022-10-02T06:30:06.333Z,3.40
2022-10-02T06:32:46.455Z,2.90
2022-10-02T06:35:16.304Z,2.90
2022-10-02T06:37:58.794Z,3.03
2022-10-02T06:40:47.654Z,3.40
2022-10-02T06:43:30.084Z,3.20
2022-10-02T06:46:08.907Z,2.80
2022-10-02T06:48:49.585Z,3.10
2022-10-02T06:51:26.335Z,3.13
2022-10-02T06:54:20.606Z,3.05
2022-10-02T06:57:06.724Z,2.88
2022-10-02T07:02:27.630Z,2.90
2022-10-02T07:05:24.845Z,2.78
2022-10-02T07:08:07.367Z,3.13
2022-10-02T07:10:46.174Z,2.78
2022-10-02T07:13:45.154Z,2.90
2022-10-02T07:16:42.003Z,2.90
2022-10-02T07:19:28.784Z,2.95
2022-10-02T07:22:32.503Z,2.50
2022-10-02T07:25:21.194Z,2.90
2022-10-02T07:27:57.774Z,2.92
2022-10-02T07:30:41.794Z,2.83
2022-10-02T07:33:27.820Z,2.72
2022-10-02T07:36:08.804Z,3.05
2022-10-02T07:39:12.914Z,2.80
2022-10-02T07:42:02.264Z,2.83
2022-10-02T07:44:42.775Z,2.85
2022-10-02T07:47:28.163Z,2.80
2022-10-02T07:50:03.446Z,2.70
2022-10-02T07:52:39.854Z,2.97
2022-10-02T07:55:20.384Z,2.70
2022-10-02T07:57:58.433Z,2.70
2022-10-02T08:00:30.149Z,2.90
2022-10-02T08:03:03.163Z,2.67
2022-10-02T08:05:36.484Z,2.90
2022-10-02T08:08:11.294Z,2.65
2022-10-02T08:10:43.724Z,2.80
2022-10-02T08:13:20.740Z,2.80
2022-10-02T08:15:55.699Z,2.70
2022-10-02T08:18:35.595Z,2.50
2022-10-02T08:21:07.524Z,2.70
2022-10-02T08:23:40.984Z,2.70
2022-10-02T08:26:16.184Z,2.90
2022-10-02T08:28:51.304Z,3.22
2022-10-02T08:31:20.080Z,5.10
2022-10-02T08:33:50.248Z,9.77
2022-10-02T08:36:55.564Z,12.00
2022-10-02T08:39:43.024Z,13.60
2022-10-02T08:42:56.534Z,11.95
2022-10-02T08:46:04.700Z,11.15
2022-10-02T08:49:21.865Z,11.20
2022-10-02T08:52:36.484Z,10.70
2022-10-02T08:55:36.283Z,11.13
2022-10-02T08:58:48.484Z,10.45
2022-10-02T09:01:42.933Z,10.68
2022-10-02T09:04:52.654Z,10.05
2022-10-02T09:08:09.245Z,9.82
2022-10-02T09:11:22.659Z,9.40
2022-10-02T09:14:37.660Z,9.70
2022-10-02T09:17:25.094Z,9.45
2022-10-02T09:20:20.364Z,9.02
2022-10-02T09:23:29.654Z,8.95
2022-10-02T09:26:05.523Z,9.50
2022-10-02T09:29:29.514Z,9.05
2022-10-02T09:32:43.514Z,8.35
2022-10-02T09:35:50.274Z,8.40
2022-10-02T09:38:40.463Z,7.82
2022-10-02T09:41:51.379Z,7.93
2022-10-02T09:45:01.553Z,7.65
2022-10-02T09:48:08.945Z,7.03
2022-10-02T09:50:51.914Z,7.35
2022-10-02T09:53:55.065Z,6.53
2022-10-02T09:56:59.104Z,7.10
2022-10-02T09:59:42.895Z,6.80
2022-10-02T10:02:42.295Z,5.88
2022-10-02T10:05:49.293Z,5.90
2022-10-02T10:11:38.035Z,5.45
2022-10-02T10:14:51.484Z,4.45
2022-10-02T10:18:11.974Z,4.60
2022-10-02T10:21:11.964Z,4.25
2022-10-02T10:24:10.634Z,3.80
2022-10-02T10:27:08.337Z,4.00
2022-10-02T10:30:16.664Z,4.60
2022-10-02T10:33:35.404Z,3.80
2022-10-02T10:37:00.533Z,3.50
2022-10-02T10:40:03.905Z,3.40
2022-10-02T10:43:08.794Z,3.28
2022-10-02T10:46:00.345Z,3.58
2022-10-02T10:49:12.247Z,3.70
2022-10-02T10:51:48.306Z,3.83
2022-10-02T10:54:48.792Z,3.50
2022-10-02T10:57:29.935Z,3.60
2022-10-02T11:00:18.044Z,4.00
2022-10-02T11:03:12.974Z,3.60
2022-10-02T11:06:17.723Z,3.50
2022-10-02T11:09:19.155Z,3.63
2022-10-02T11:12:09.414Z,2.90
2022-10-02T11:14:52.724Z,3.10
2022-10-02T11:17:41.814Z,3.10
2022-10-02T11:20:26.155Z,4.25
2022-10-02T11:23:26.664Z,7.32
2022-10-02T11:26:22.404Z,6.93
2022-10-02T11:29:20.944Z,8.97
2022-10-02T11:32:29.114Z,8.38
2022-10-02T11:35:19.754Z,15.45
2022-10-02T11:38:15.305Z,25.50
2022-10-02T11:41:25.044Z,22.02
2022-10-02T11:44:10.609Z,17.55
2022-10-02T11:47:24.774Z,19.92
2022-10-02T11:50:31.774Z,19.25
2022-10-02T11:55:53.220Z,17.92
2022-10-02T11:58:37.545Z,17.13
2022-10-02T12:01:34.923Z,16.73
2022-10-02T12:04:23.213Z,17.20
2022-10-02T12:07:19.004Z,18.10
2022-10-02T12:10:43.249Z,17.00
2022-10-02T12:13:38.129Z,17.85
2022-10-02T12:16:19.468Z,16.90
2022-10-02T12:19:10.504Z,18.80
2022-10-02T12:22:10.665Z,19.98
2022-10-02T12:25:09.524Z,18.90
2022-10-02T12:27:52.201Z,18.63
2022-10-02T12:30:22.774Z,18.98
2022-10-02T12:33:28.074Z,18.58
2022-10-02T12:36:25.611Z,18.33
2022-10-02T12:39:05.264Z,18.17
2022-10-02T12:42:14.114Z,15.77
2022-10-02T12:45:21.103Z,14.85
2022-10-02T12:50:41.674Z,13.43
2022-10-02T12:53:38.814Z,13.20
2022-10-02T12:56:54.895Z,12.73
2022-10-02T12:59:31.225Z,11.77
2022-10-02T13:02:56.051Z,12.10
2022-10-02T13:05:46.600Z,11.98
2022-10-02T13:08:35.734Z,12.13
2022-10-02T13:11:12.714Z,9.98
2022-10-02T13:14:05.473Z,12.05
2022-10-02T13:16:59.477Z,9.82
2022-10-02T13:19:37.154Z,10.38
2022-10-02T13:22:13.579Z,10.50
2022-10-02T13:25:00.824Z,10.63
2022-10-02T13:27:38.364Z,10.68
2022-10-02T13:30:16.619Z,10.93
2022-10-02T13:33:15.654Z,10.23
2022-10-02T13:36:11.835Z,12.10
2022-10-02T13:39:03.784Z,10.88
2022-10-02T13:41:49.794Z,12.18
2022-10-02T13:44:30.134Z,11.23
2022-10-02T13:47:41.954Z,11.60
2022-10-02T13:50:27.263Z,11.52
2022-10-02T13:53:25.413Z,11.95
2022-10-02T13:55:57.985Z,11.70
2022-10-02T13:58:50.454Z,10.25
2022-10-02T14:01:28.781Z,11.68
2022-10-02T14:04:15.200Z,10.80
2022-10-02T14:06:50.347Z,9.82
2022-10-02T14:09:31.184Z,10.25
2022-10-02T14:12:20.734Z,9.35
2022-10-02T14:15:05.124Z,9.32
2022-10-02T14:17:46.825Z,8.85
2022-10-02T14:20:31.094Z,8.50
2022-10-02T14:23:14.294Z,7.47
2022-10-02T14:25:56.254Z,6.78
2022-10-02T14:28:45.818Z,6.55
2022-10-02T14:31:42.651Z,6.40
2022-10-02T14:34:37.794Z,6.43
2022-10-02T14:37:45.724Z,5.78
2022-10-02T14:40:16.154Z,6.05
2022-10-02T14:43:01.924Z,5.15
2022-10-02T14:45:54.881Z,5.20
2022-10-02T14:48:38.344Z,5.40
2022-10-02T14:51:22.475Z,4.38
2022-10-02T14:54:18.420Z,4.88
2022-10-02T14:57:09.419Z,4.50
2022-10-02T15:00:03.434Z,4.22
2022-10-02T15:02:56.905Z,4.13
2022-10-02T15:05:46.778Z,4.13
2022-10-02T15:08:20.224Z,3.70
2022-10-02T15:10:50.855Z,3.83
2022-10-02T15:13:28.864Z,3.58
2022-10-02T15:16:21.384Z,3.75
2022-10-02T15:18:58.434Z,3.35
2022-10-02T15:21:32.525Z,3.40
2022-10-02T15:24:14.404Z,3.30
2022-10-02T15:26:51.968Z,2.83
2022-10-02T15:29:30.523Z,3.00
2022-10-02T15:32:34.836Z,2.83
2022-10-02T15:35:20.656Z,2.88
2022-10-02T15:38:04.532Z,2.80
2022-10-02T15:40:37.755Z,2.70
2022-10-02T15:43:29.350Z,2.90
2022-10-02T15:46:11.673Z,2.60
2022-10-02T15:49:08.864Z,2.80
2022-10-02T15:51:53.784Z,2.63
2022-10-02T15:54:39.784Z,2.45
2022-10-02T15:57:26.864Z,2.45
2022-10-02T16:00:10.938Z,2.40
2022-10-02T16:02:58.849Z,2.28
2022-10-02T16:05:52.492Z,2.50
2022-10-02T16:08:36.744Z,2.13
2022-10-02T16:11:40.425Z,2.30
2022-10-02T16:14:15.425Z,2.13
2022-10-02T16:17:16.184Z,3.08
2022-10-02T16:20:26.754Z,2.40
2022-10-02T16:23:07.654Z,2.25
2022-10-02T16:25:52.954Z,2.47
2022-10-02T16:28:36.901Z,2.33
2022-10-02T16:31:23.359Z,2.42
2022-10-02T16:34:02.595Z,2.30
2022-10-02T16:36:43.079Z,2.30
2022-10-02T16:39:34.835Z,2.58
2022-10-02T16:42:14.385Z,2.20
2022-10-02T16:45:06.494Z,2.05
2022-10-02T16:47:45.854Z,2.28
2022-10-02T16:50:25.135Z,2.30
2022-10-02T16:52:59.430Z,1.90
2022-10-02T16:55:34.245Z,2.00
2022-10-02T16:58:13.703Z,2.20
2022-10-02T17:00:55.340Z,2.00
2022-10-02T17:03:31.883Z,2.13
2022-10-02T17:06:08.784Z,1.83
2022-10-02T17:08:43.824Z,2.20
2022-10-02T17:11:21.834Z,2.10
2022-10-02T17:14:04.013Z,2.25
2022-10-02T17:16:40.872Z,2.45
2022-10-02T17:19:22.345Z,2.35
2022-10-02T17:21:57.884Z,2.30
2022-10-02T17:24:38.164Z,2.30
2022-10-02T17:27:15.514Z,2.60
2022-10-02T17:29:53.164Z,2.92
2022-10-02T17:32:48.708Z,3.53
2022-10-02T17:35:19.809Z,4.72
2022-10-02T17:38:05.634Z,5.30
2022-10-02T17:40:41.481Z,5.18
2022-10-02T17:43:24.214Z,5.18
2022-10-02T17:46:03.403Z,4.50
2022-10-02T17:48:44.377Z,4.55
2022-10-02T17:51:51.385Z,4.60
2022-10-02T17:55:03.144Z,4.30
2022-10-02T17:57:51.943Z,4.40
2022-10-02T18:00:24.229Z,4.50
2022-10-02T18:03:33.294Z,4.55
2022-10-02T18:06:15.835Z,4.43
2022-10-02T18:09:12.279Z,4.25
2022-10-02T18:12:03.976Z,4.60
2022-10-02T18:15:05.163Z,4.65
2022-10-02T18:17:48.330Z,4.18
2022-10-02T18:20:34.893Z,3.97
2022-10-02T18:23:18.674Z,3.88
2022-10-02T18:26:08.728Z,4.18
2022-10-02T18:29:08.045Z,4.22
2022-10-02T18:31:59.813Z,3.92
2022-10-02T18:34:56.117Z,4.18
2022-10-02T18:37:49.800Z,4.80
2022-10-02T18:40:27.761Z,4.60
2022-10-02T18:43:24.224Z,4.82
2022-10-02T18:46:09.332Z,5.20
2022-10-02T18:48:59.929Z,4.90
2022-10-02T18:52:02.764Z,5.55
2022-10-02T18:54:50.720Z,4.97
2022-10-02T18:57:35.719Z,5.15
2022-10-02T19:00:15.964Z,5.68
2022-10-02T19:03:13.254Z,5.45
2022-10-02T19:05:56.114Z,5.13
2022-10-02T19:08:36.769Z,5.65
2022-10-02T19:11:21.879Z,5.50
2022-10-02T19:13:55.635Z,5.63
2022-10-02T19:16:29.022Z,5.32
2022-10-02T19:19:16.273Z,5.55
2022-10-02T19:21:53.957Z,5.35
2022-10-02T19:24:33.599Z,5.30
2022-10-02T19:27:16.813Z,6.78
2022-10-02T19:29:50.634Z,7.60
2022-10-02T19:32:24.715Z,8.13
2022-10-02T19:35:04.875Z,8.10
2022-10-02T19:37:42.774Z,8.10
2022-10-02T19:40:19.574Z,7.70
2022-10-02T19:42:51.960Z,7.43
2022-10-02T19:45:27.002Z,7.22
2022-10-02T19:47:58.554Z,6.97
2022-10-02T19:50:40.217Z,7.00
2022-10-02T19:53:20.604Z,6.43
2022-10-02T19:55:56.995Z,6.75
2022-10-02T19:58:34.823Z,6.18
2022-10-02T20:01:08.679Z,6.55
2022-10-02T20:03:57.919Z,6.00
2022-10-02T20:06:58.814Z,6.28
2022-10-02T20:09:36.098Z,6.90
2022-10-02T20:12:10.659Z,6.28
2022-10-02T20:14:44.211Z,5.88
2022-10-02T20:17:14.111Z,6.93
2022-10-02T20:19:48.655Z,7.10
2022-10-02T20:22:34.664Z,6.80
2022-10-02T20:25:10.397Z,6.70
2022-10-02T20:30:22.250Z,7.68
2022-10-02T20:33:16.240Z,7.35
2022-10-02T20:36:17.765Z,7.35
2022-10-02T20:38:55.526Z,8.15
2022-10-02T20:41:28.244Z,8.07
2022-10-02T20:44:04.798Z,8.13
2022-10-02T20:47:11.025Z,9.50
2022-10-02T20:50:30.589Z,10.32
2022-10-02T20:53:34.049Z,8.52
2022-10-02T20:56:29.994Z,9.00
2022-10-02T20:59:58.814Z,8.93
2022-10-02T21:03:04.439Z,8.95
2022-10-02T21:06:15.932Z,8.13
2022-10-02T21:09:29.443Z,8.63
2022-10-02T21:12:25.315Z,9.30
2022-10-02T21:15:14.494Z,9.15
2022-10-02T21:18:09.139Z,10.23
2022-10-02T21:21:07.987Z,9.90
2022-10-02T21:24:14.540Z,10.35
2022-10-02T21:27:27.424Z,11.35
2022-10-02T21:30:35.316Z,11.25
2022-10-02T21:33:07.794Z,11.38
2022-10-02T21:35:46.320Z,11.65
2022-10-02T21:38:42.194Z,10.55
2022-10-02T21:41:57.637Z,11.43
2022-10-02T21:45:07.294Z,11.20
2022-10-02T21:47:57.354Z,11.10
2022-10-02T21:50:59.981Z,12.02
2022-10-02T21:54:01.114Z,13.25
2022-10-02T21:56:54.264Z,13.25
2022-10-02T21:59:59.673Z,13.43
2022-10-02T22:03:05.569Z,13.02
2022-10-02T22:06:11.036Z,13.95
2022-10-02T22:09:04.714Z,13.50
2022-10-02T22:11:47.058Z,12.57
2022-10-02T22:14:23.975Z,12.82
2022-10-02T22:17:00.174Z,11.80
2022-10-02T22:19:44.979Z,11.75
2022-10-02T22:22:29.735Z,12.25
2022-10-02T22:25:15.566Z,11.73
2022-10-02T22:30:32.685Z,11.00
2022-10-02T22:33:23.375Z,10.68
2022-10-02T22:36:27.538Z,10.77
2022-10-02T22:39:05.487Z,10.98
2022-10-02T22:41:41.163Z,10.52
2022-10-02T22:44:23.088Z,10.82
2022-10-02T22:46:58.383Z,11.20
2022-10-02T22:49:34.404Z,11.18
2022-10-02T22:52:10.504Z,10.95
2022-10-02T22:54:47.879Z,9.95
2022-10-02T22:57:28.985Z,10.30
2022-10-02T23:00:03.683Z,10.48
2022-10-02T23:02:37.169Z,10.23
2022-10-02T23:05:15.624Z,9.98
2022-10-02T23:07:49.814Z,9.95
2022-10-02T23:10:27.345Z,10.27
2022-10-02T23:13:07.594Z,9.32
2022-10-02T23:15:46.500Z,10.43
2022-10-02T23:18:29.534Z,9.82
2022-10-02T23:21:04.924Z,9.90
2022-10-02T23:23:39.394Z,10.07
2022-10-02T23:26:17.604Z,8.85
2022-10-02T23:28:54.094Z,8.40
2022-10-02T23:31:30.648Z,8.82
2022-10-02T23:34:08.514Z,9.02
2022-10-02T23:36:48.469Z,8.80
2022-10-02T23:39:24.229Z,8.90
2022-10-02T23:44:37.060Z,8.10
2022-10-02T23:47:20.514Z,9.18
2022-10-02T23:49:53.522Z,8.77
2022-10-02T23:52:47.959Z,8.40
2022-10-02T23:55:44.124Z,8.98
2022-10-02T23:58:48.896Z,8.27
